sensor_id;sensor_type;location;lat;lon;timestamp;P1;durP1;ratioP1;P2;durP2;ratioP2
20669;SDS011;10494;50.868;4.180;2023-03-05T00:02:10;10.97;;;3.17;;
20669;SDS011;10494;50.868;4.180;2023-03-05T00:04:37;6.60;;;2.97;;
20669;SDS011;10494;50.868;4.180;2023-03-05T00:07:02;8.47;;;3.93;;
20669;SDS011;10494;50.868;4.180;2023-03-05T00:09:29;13.97;;;3.83;;
20669;SDS011;10494;50.868;4.180;2023-03-05T00:11:55;13.37;;;4.37;;
20669;SDS011;10494;50.868;4.180;2023-03-05T00:14:20;9.70;;;3.80;;
20669;SDS011;10494;50.868;4.180;2023-03-05T00:16:46;9.90;;;3.70;;
20669;SDS011;10494;50.868;4.180;2023-03-05T00:19:12;17.73;;;4.40;;
20669;SDS011;10494;50.868;4.180;2023-03-05T00:21:38;11.03;;;4.57;;
20669;SDS011;10494;50.868;4.180;2023-03-05T00:24:07;14.17;;;6.30;;
20669;SDS011;10494;50.868;4.180;2023-03-05T00:26:42;49.97;;;18.40;;
20669;SDS011;10494;50.868;4.180;2023-03-05T00:29:09;42.83;;;14.47;;
20669;SDS011;10494;50.868;4.180;2023-03-05T00:31:42;44.27;;;17.20;;
20669;SDS011;10494;50.868;4.180;2023-03-05T00:34:10;36.50;;;15.87;;
20669;SDS011;10494;50.868;4.180;2023-03-05T00:36:41;18.80;;;9.63;;
20669;SDS011;10494;50.868;4.180;2023-03-05T00:39:08;13.53;;;7.80;;
20669;SDS011;10494;50.868;4.180;2023-03-05T00:41:34;13.80;;;6.27;;
20669;SDS011;10494;50.868;4.180;2023-03-05T00:44:00;15.23;;;6.33;;
20669;SDS011;10494;50.868;4.180;2023-03-05T00:46:26;14.93;;;5.20;;
20669;SDS011;10494;50.868;4.180;2023-03-05T00:48:52;9.70;;;4.10;;
20669;SDS011;10494;50.868;4.180;2023-03-05T00:51:18;11.10;;;4.50;;
20669;SDS011;10494;50.868;4.180;2023-03-05T00:53:45;12.70;;;3.90;;
20669;SDS011;10494;50.868;4.180;2023-03-05T00:56:10;7.00;;;3.73;;
20669;SDS011;10494;50.868;4.180;2023-03-05T00:58:36;10.23;;;3.70;;
20669;SDS011;10494;50.868;4.180;2023-03-05T01:01:02;10.43;;;3.90;;
20669;SDS011;10494;50.868;4.180;2023-03-05T01:03:29;11.00;;;4.70;;
20669;SDS011;10494;50.868;4.180;2023-03-05T01:05:56;10.80;;;3.90;;
20669;SDS011;10494;50.868;4.180;2023-03-05T01:08:22;17.90;;;4.50;;
20669;SDS011;10494;50.868;4.180;2023-03-05T01:10:48;15.63;;;4.43;;
20669;SDS011;10494;50.868;4.180;2023-03-05T01:13:13;9.87;;;4.30;;
20669;SDS011;10494;50.868;4.180;2023-03-05T01:15:39;14.80;;;4.93;;
20669;SDS011;10494;50.868;4.180;2023-03-05T01:18:04;11.70;;;4.53;;
20669;SDS011;10494;50.868;4.180;2023-03-05T01:20:30;14.10;;;4.30;;
20669;SDS011;10494;50.868;4.180;2023-03-05T01:22:56;12.73;;;4.33;;
20669;SDS011;10494;50.868;4.180;2023-03-05T01:25:24;10.70;;;4.67;;
20669;SDS011;10494;50.868;4.180;2023-03-05T01:27:50;12.13;;;3.80;;
20669;SDS011;10494;50.868;4.180;2023-03-05T01:30:16;17.03;;;3.87;;
20669;SDS011;10494;50.868;4.180;2023-03-05T01:32:42;10.53;;;4.33;;
20669;SDS011;10494;50.868;4.180;2023-03-05T01:35:07;17.17;;;4.27;;
20669;SDS011;10494;50.868;4.180;2023-03-05T01:37:36;12.50;;;4.00;;
20669;SDS011;10494;50.868;4.180;2023-03-05T01:40:02;9.57;;;3.70;;
20669;SDS011;10494;50.868;4.180;2023-03-05T01:42:28;12.63;;;3.70;;
20669;SDS011;10494;50.868;4.180;2023-03-05T01:45:07;12.27;;;3.70;;
20669;SDS011;10494;50.868;4.180;2023-03-05T01:47:35;10.43;;;3.63;;
20669;SDS011;10494;50.868;4.180;2023-03-05T01:50:02;14.03;;;4.60;;
20669;SDS011;10494;50.868;4.180;2023-03-05T01:52:30;11.83;;;4.20;;
20669;SDS011;10494;50.868;4.180;2023-03-05T01:55:00;13.13;;;4.07;;
20669;SDS011;10494;50.868;4.180;2023-03-05T01:57:36;11.03;;;4.07;;
20669;SDS011;10494;50.868;4.180;2023-03-05T02:03:07;11.93;;;4.23;;
20669;SDS011;10494;50.868;4.180;2023-03-05T02:05:35;13.47;;;4.27;;
20669;SDS011;10494;50.868;4.180;2023-03-05T02:08:03;8.23;;;3.50;;
20669;SDS011;10494;50.868;4.180;2023-03-05T02:10:31;13.80;;;4.77;;
20669;SDS011;10494;50.868;4.180;2023-03-05T02:13:01;9.23;;;3.97;;
20669;SDS011;10494;50.868;4.180;2023-03-05T02:15:29;12.73;;;4.07;;
20669;SDS011;10494;50.868;4.180;2023-03-05T02:17:56;13.73;;;4.27;;
20669;SDS011;10494;50.868;4.180;2023-03-05T02:20:23;14.00;;;4.47;;
20669;SDS011;10494;50.868;4.180;2023-03-05T02:22:50;10.17;;;4.20;;
20669;SDS011;10494;50.868;4.180;2023-03-05T02:27:57;11.73;;;4.33;;
20669;SDS011;10494;50.868;4.180;2023-03-05T02:30:27;10.73;;;4.40;;
20669;SDS011;10494;50.868;4.180;2023-03-05T02:32:55;11.07;;;4.43;;
20669;SDS011;10494;50.868;4.180;2023-03-05T02:35:21;10.33;;;4.37;;
20669;SDS011;10494;50.868;4.180;2023-03-05T02:37:47;11.03;;;5.07;;
20669;SDS011;10494;50.868;4.180;2023-03-05T02:40:13;13.10;;;4.33;;
20669;SDS011;10494;50.868;4.180;2023-03-05T02:42:39;10.27;;;4.57;;
20669;SDS011;10494;50.868;4.180;2023-03-05T02:45:05;14.60;;;5.30;;
20669;SDS011;10494;50.868;4.180;2023-03-05T02:47:31;10.43;;;6.40;;
20669;SDS011;10494;50.868;4.180;2023-03-05T02:49:56;20.67;;;6.60;;
20669;SDS011;10494;50.868;4.180;2023-03-05T02:52:22;14.50;;;6.60;;
20669;SDS011;10494;50.868;4.180;2023-03-05T02:54:49;13.17;;;6.97;;
20669;SDS011;10494;50.868;4.180;2023-03-05T02:57:15;17.90;;;7.63;;
20669;SDS011;10494;50.868;4.180;2023-03-05T02:59:42;22.07;;;8.10;;
20669;SDS011;10494;50.868;4.180;2023-03-05T03:02:07;14.97;;;8.37;;
20669;SDS011;10494;50.868;4.180;2023-03-05T03:04:33;19.47;;;8.50;;
20669;SDS011;10494;50.868;4.180;2023-03-05T03:06:58;15.50;;;8.30;;
20669;SDS011;10494;50.868;4.180;2023-03-05T03:09:24;20.60;;;9.37;;
20669;SDS011;10494;50.868;4.180;2023-03-05T03:11:50;24.27;;;9.83;;
20669;SDS011;10494;50.868;4.180;2023-03-05T03:14:16;22.67;;;9.83;;
20669;SDS011;10494;50.868;4.180;2023-03-05T03:16:42;15.77;;;8.73;;
20669;SDS011;10494;50.868;4.180;2023-03-05T03:19:08;23.03;;;9.67;;
20669;SDS011;10494;50.868;4.180;2023-03-05T03:21:33;18.77;;;9.43;;
20669;SDS011;10494;50.868;4.180;2023-03-05T03:23:59;16.40;;;9.27;;
20669;SDS011;10494;50.868;4.180;2023-03-05T03:26:24;21.33;;;9.77;;
20669;SDS011;10494;50.868;4.180;2023-03-05T03:28:50;18.53;;;10.27;;
20669;SDS011;10494;50.868;4.180;2023-03-05T03:31:16;22.27;;;9.97;;
20669;SDS011;10494;50.868;4.180;2023-03-05T03:33:41;18.60;;;9.57;;
20669;SDS011;10494;50.868;4.180;2023-03-05T03:36:08;17.20;;;9.47;;
20669;SDS011;10494;50.868;4.180;2023-03-05T03:38:33;22.70;;;10.47;;
20669;SDS011;10494;50.868;4.180;2023-03-05T03:40:59;20.07;;;9.77;;
20669;SDS011;10494;50.868;4.180;2023-03-05T03:43:25;17.73;;;9.63;;
20669;SDS011;10494;50.868;4.180;2023-03-05T03:45:50;24.77;;;10.43;;
20669;SDS011;10494;50.868;4.180;2023-03-05T03:48:16;19.63;;;10.53;;
20669;SDS011;10494;50.868;4.180;2023-03-05T03:50:42;19.67;;;10.30;;
20669;SDS011;10494;50.868;4.180;2023-03-05T03:53:08;31.37;;;11.63;;
20669;SDS011;10494;50.868;4.180;2023-03-05T03:55:38;22.17;;;11.50;;
20669;SDS011;10494;50.868;4.180;2023-03-05T03:58:06;19.53;;;10.77;;
20669;SDS011;10494;50.868;4.180;2023-03-05T04:00:32;21.07;;;11.63;;
20669;SDS011;10494;50.868;4.180;2023-03-05T04:02:58;26.70;;;10.43;;
20669;SDS011;10494;50.868;4.180;2023-03-05T04:05:24;18.00;;;10.60;;
20669;SDS011;10494;50.868;4.180;2023-03-05T04:07:49;19.77;;;10.60;;
20669;SDS011;10494;50.868;4.180;2023-03-05T04:10:15;19.90;;;10.00;;
20669;SDS011;10494;50.868;4.180;2023-03-05T04:12:41;21.00;;;11.03;;
20669;SDS011;10494;50.868;4.180;2023-03-05T04:15:07;18.77;;;11.37;;
20669;SDS011;10494;50.868;4.180;2023-03-05T04:17:34;20.30;;;10.57;;
20669;SDS011;10494;50.868;4.180;2023-03-05T04:20:00;25.17;;;10.97;;
20669;SDS011;10494;50.868;4.180;2023-03-05T04:22:25;24.10;;;10.80;;
20669;SDS011;10494;50.868;4.180;2023-03-05T04:24:51;20.63;;;10.63;;
20669;SDS011;10494;50.868;4.180;2023-03-05T04:27:17;19.30;;;11.70;;
20669;SDS011;10494;50.868;4.180;2023-03-05T04:29:42;20.73;;;12.00;;
20669;SDS011;10494;50.868;4.180;2023-03-05T04:32:08;26.03;;;13.63;;
20669;SDS011;10494;50.868;4.180;2023-03-05T04:34:33;21.60;;;13.07;;
20669;SDS011;10494;50.868;4.180;2023-03-05T04:37:01;28.23;;;13.27;;
20669;SDS011;10494;50.868;4.180;2023-03-05T04:39:27;21.33;;;13.60;;
20669;SDS011;10494;50.868;4.180;2023-03-05T04:41:52;26.20;;;13.03;;
20669;SDS011;10494;50.868;4.180;2023-03-05T04:44:18;23.80;;;12.37;;
20669;SDS011;10494;50.868;4.180;2023-03-05T04:46:44;22.43;;;11.87;;
20669;SDS011;10494;50.868;4.180;2023-03-05T04:49:09;26.43;;;13.00;;
20669;SDS011;10494;50.868;4.180;2023-03-05T04:51:35;20.50;;;12.50;;
20669;SDS011;10494;50.868;4.180;2023-03-05T04:54:00;29.23;;;12.67;;
20669;SDS011;10494;50.868;4.180;2023-03-05T04:56:26;21.40;;;12.30;;
20669;SDS011;10494;50.868;4.180;2023-03-05T04:58:51;23.03;;;12.33;;
20669;SDS011;10494;50.868;4.180;2023-03-05T05:01:17;22.70;;;12.17;;
20669;SDS011;10494;50.868;4.180;2023-03-05T05:03:43;25.97;;;12.20;;
20669;SDS011;10494;50.868;4.180;2023-03-05T05:06:10;21.27;;;11.67;;
20669;SDS011;10494;50.868;4.180;2023-03-05T05:08:36;24.37;;;12.20;;
20669;SDS011;10494;50.868;4.180;2023-03-05T05:11:03;23.30;;;12.20;;
20669;SDS011;10494;50.868;4.180;2023-03-05T05:13:31;25.80;;;12.23;;
20669;SDS011;10494;50.868;4.180;2023-03-05T05:15:57;24.57;;;12.10;;
20669;SDS011;10494;50.868;4.180;2023-03-05T05:18:23;26.67;;;13.40;;
20669;SDS011;10494;50.868;4.180;2023-03-05T05:20:49;21.03;;;11.70;;
20669;SDS011;10494;50.868;4.180;2023-03-05T05:23:15;21.67;;;11.63;;
20669;SDS011;10494;50.868;4.180;2023-03-05T05:25:41;26.57;;;12.83;;
20669;SDS011;10494;50.868;4.180;2023-03-05T05:28:08;19.70;;;10.77;;
20669;SDS011;10494;50.868;4.180;2023-03-05T05:30:34;25.23;;;11.27;;
20669;SDS011;10494;50.868;4.180;2023-03-05T05:33:00;19.97;;;11.73;;
20669;SDS011;10494;50.868;4.180;2023-03-05T05:35:26;17.83;;;11.77;;
20669;SDS011;10494;50.868;4.180;2023-03-05T05:37:52;23.03;;;12.50;;
20669;SDS011;10494;50.868;4.180;2023-03-05T05:40:17;21.00;;;11.27;;
20669;SDS011;10494;50.868;4.180;2023-03-05T05:42:43;20.13;;;10.77;;
20669;SDS011;10494;50.868;4.180;2023-03-05T05:45:09;23.27;;;11.57;;
20669;SDS011;10494;50.868;4.180;2023-03-05T05:47:35;17.73;;;11.17;;
20669;SDS011;10494;50.868;4.180;2023-03-05T05:50:01;20.67;;;10.70;;
20669;SDS011;10494;50.868;4.180;2023-03-05T05:52:28;20.37;;;10.80;;
20669;SDS011;10494;50.868;4.180;2023-03-05T05:54:53;21.57;;;12.23;;
20669;SDS011;10494;50.868;4.180;2023-03-05T05:57:19;22.03;;;11.27;;
20669;SDS011;10494;50.868;4.180;2023-03-05T05:59:44;21.43;;;11.70;;
20669;SDS011;10494;50.868;4.180;2023-03-05T06:02:10;17.93;;;11.03;;
20669;SDS011;10494;50.868;4.180;2023-03-05T06:04:35;22.03;;;10.83;;
20669;SDS011;10494;50.868;4.180;2023-03-05T06:07:01;19.27;;;10.70;;
20669;SDS011;10494;50.868;4.180;2023-03-05T06:09:28;18.90;;;10.27;;
20669;SDS011;10494;50.868;4.180;2023-03-05T06:11:53;19.30;;;11.40;;
20669;SDS011;10494;50.868;4.180;2023-03-05T06:14:19;17.43;;;10.33;;
20669;SDS011;10494;50.868;4.180;2023-03-05T06:16:45;18.87;;;11.27;;
20669;SDS011;10494;50.868;4.180;2023-03-05T06:19:11;19.20;;;11.20;;
20669;SDS011;10494;50.868;4.180;2023-03-05T06:21:37;18.30;;;10.03;;
20669;SDS011;10494;50.868;4.180;2023-03-05T06:24:03;19.00;;;10.50;;
20669;SDS011;10494;50.868;4.180;2023-03-05T06:26:29;20.93;;;10.87;;
20669;SDS011;10494;50.868;4.180;2023-03-05T06:28:55;16.93;;;10.17;;
20669;SDS011;10494;50.868;4.180;2023-03-05T06:31:22;16.27;;;10.10;;
20669;SDS011;10494;50.868;4.180;2023-03-05T06:33:49;20.37;;;10.33;;
20669;SDS011;10494;50.868;4.180;2023-03-05T06:36:17;17.00;;;10.00;;
20669;SDS011;10494;50.868;4.180;2023-03-05T06:38:43;17.63;;;9.77;;
20669;SDS011;10494;50.868;4.180;2023-03-05T06:41:11;18.73;;;10.57;;
20669;SDS011;10494;50.868;4.180;2023-03-05T06:43:40;17.33;;;10.63;;
20669;SDS011;10494;50.868;4.180;2023-03-05T06:48:43;20.33;;;10.73;;
20669;SDS011;10494;50.868;4.180;2023-03-05T06:51:13;17.83;;;10.70;;
20669;SDS011;10494;50.868;4.180;2023-03-05T06:53:44;16.40;;;10.60;;
20669;SDS011;10494;50.868;4.180;2023-03-05T06:56:10;25.57;;;11.67;;
20669;SDS011;10494;50.868;4.180;2023-03-05T06:58:37;19.73;;;11.60;;
20669;SDS011;10494;50.868;4.180;2023-03-05T07:01:04;19.33;;;10.47;;
20669;SDS011;10494;50.868;4.180;2023-03-05T07:03:31;22.83;;;10.80;;
20669;SDS011;10494;50.868;4.180;2023-03-05T07:05:57;22.70;;;11.00;;
20669;SDS011;10494;50.868;4.180;2023-03-05T07:08:23;20.87;;;11.33;;
20669;SDS011;10494;50.868;4.180;2023-03-05T07:10:48;22.43;;;11.80;;
20669;SDS011;10494;50.868;4.180;2023-03-05T07:13:14;24.37;;;12.20;;
20669;SDS011;10494;50.868;4.180;2023-03-05T07:15:39;20.33;;;11.30;;
20669;SDS011;10494;50.868;4.180;2023-03-05T07:18:05;17.90;;;10.90;;
20669;SDS011;10494;50.868;4.180;2023-03-05T07:20:34;19.83;;;10.87;;
20669;SDS011;10494;50.868;4.180;2023-03-05T07:23:01;19.90;;;9.93;;
20669;SDS011;10494;50.868;4.180;2023-03-05T07:25:26;23.83;;;9.63;;
20669;SDS011;10494;50.868;4.180;2023-03-05T07:27:52;16.07;;;9.83;;
20669;SDS011;10494;50.868;4.180;2023-03-05T07:30:18;18.00;;;9.50;;
20669;SDS011;10494;50.868;4.180;2023-03-05T07:32:43;19.63;;;10.63;;
20669;SDS011;10494;50.868;4.180;2023-03-05T07:35:09;19.97;;;10.87;;
20669;SDS011;10494;50.868;4.180;2023-03-05T07:37:35;17.00;;;9.80;;
20669;SDS011;10494;50.868;4.180;2023-03-05T07:40:00;19.27;;;10.30;;
20669;SDS011;10494;50.868;4.180;2023-03-05T07:42:26;18.47;;;10.00;;
20669;SDS011;10494;50.868;4.180;2023-03-05T07:44:51;17.90;;;9.77;;
20669;SDS011;10494;50.868;4.180;2023-03-05T07:47:17;20.53;;;9.30;;
20669;SDS011;10494;50.868;4.180;2023-03-05T07:49:43;16.97;;;9.37;;
20669;SDS011;10494;50.868;4.180;2023-03-05T07:52:08;15.47;;;9.93;;
20669;SDS011;10494;50.868;4.180;2023-03-05T07:54:34;19.07;;;10.40;;
20669;SDS011;10494;50.868;4.180;2023-03-05T07:57:06;24.20;;;10.50;;
20669;SDS011;10494;50.868;4.180;2023-03-05T07:59:32;18.00;;;10.87;;
20669;SDS011;10494;50.868;4.180;2023-03-05T08:01:59;17.27;;;10.47;;
20669;SDS011;10494;50.868;4.180;2023-03-05T08:04:27;20.17;;;11.50;;
20669;SDS011;10494;50.868;4.180;2023-03-05T08:06:55;19.90;;;11.70;;
20669;SDS011;10494;50.868;4.180;2023-03-05T08:09:22;18.33;;;10.87;;
20669;SDS011;10494;50.868;4.180;2023-03-05T08:11:47;19.60;;;10.87;;
20669;SDS011;10494;50.868;4.180;2023-03-05T08:14:13;18.17;;;11.13;;
20669;SDS011;10494;50.868;4.180;2023-03-05T08:16:39;20.73;;;11.93;;
20669;SDS011;10494;50.868;4.180;2023-03-05T08:19:05;18.60;;;11.47;;
20669;SDS011;10494;50.868;4.180;2023-03-05T08:21:31;17.43;;;11.00;;
20669;SDS011;10494;50.868;4.180;2023-03-05T08:23:59;17.00;;;10.37;;
20669;SDS011;10494;50.868;4.180;2023-03-05T08:26:30;19.67;;;11.60;;
20669;SDS011;10494;50.868;4.180;2023-03-05T08:28:56;16.13;;;10.07;;
20669;SDS011;10494;50.868;4.180;2023-03-05T08:31:23;17.53;;;10.67;;
20669;SDS011;10494;50.868;4.180;2023-03-05T08:33:50;15.83;;;9.73;;
20669;SDS011;10494;50.868;4.180;2023-03-05T08:36:18;15.73;;;10.07;;
20669;SDS011;10494;50.868;4.180;2023-03-05T08:38:44;16.53;;;11.83;;
20669;SDS011;10494;50.868;4.180;2023-03-05T08:41:10;17.27;;;10.43;;
20669;SDS011;10494;50.868;4.180;2023-03-05T08:43:36;18.27;;;12.33;;
20669;SDS011;10494;50.868;4.180;2023-03-05T08:46:03;15.17;;;9.73;;
20669;SDS011;10494;50.868;4.180;2023-03-05T08:48:29;12.87;;;9.10;;
20669;SDS011;10494;50.868;4.180;2023-03-05T08:50:55;14.00;;;9.23;;
20669;SDS011;10494;50.868;4.180;2023-03-05T08:53:22;9.77;;;7.37;;
20669;SDS011;10494;50.868;4.180;2023-03-05T08:55:54;13.77;;;7.50;;
20669;SDS011;10494;50.868;4.180;2023-03-05T08:58:21;12.10;;;7.47;;
20669;SDS011;10494;50.868;4.180;2023-03-05T09:00:47;10.50;;;7.13;;
20669;SDS011;10494;50.868;4.180;2023-03-05T09:03:12;8.27;;;6.03;;
20669;SDS011;10494;50.868;4.180;2023-03-05T09:05:38;9.90;;;6.93;;
20669;SDS011;10494;50.868;4.180;2023-03-05T09:08:04;9.23;;;6.47;;
20669;SDS011;10494;50.868;4.180;2023-03-05T09:10:30;9.90;;;5.97;;
20669;SDS011;10494;50.868;4.180;2023-03-05T09:12:55;8.70;;;5.90;;
20669;SDS011;10494;50.868;4.180;2023-03-05T09:15:21;8.93;;;6.23;;
20669;SDS011;10494;50.868;4.180;2023-03-05T09:17:46;9.70;;;6.60;;
20669;SDS011;10494;50.868;4.180;2023-03-05T09:20:12;9.80;;;6.50;;
20669;SDS011;10494;50.868;4.180;2023-03-05T09:22:38;10.70;;;5.97;;
20669;SDS011;10494;50.868;4.180;2023-03-05T09:25:04;9.73;;;6.13;;
20669;SDS011;10494;50.868;4.180;2023-03-05T09:27:34;8.30;;;5.53;;
20669;SDS011;10494;50.868;4.180;2023-03-05T09:30:00;10.87;;;5.73;;
20669;SDS011;10494;50.868;4.180;2023-03-05T09:32:26;6.00;;;4.40;;
20669;SDS011;10494;50.868;4.180;2023-03-05T09:34:51;11.23;;;4.50;;
20669;SDS011;10494;50.868;4.180;2023-03-05T09:37:17;7.13;;;4.50;;
20669;SDS011;10494;50.868;4.180;2023-03-05T09:39:42;8.27;;;4.13;;
20669;SDS011;10494;50.868;4.180;2023-03-05T09:50:53;8.30;;;4.80;;
20669;SDS011;10494;50.868;4.180;2023-03-05T09:56:18;6.07;;;2.73;;
20669;SDS011;10494;50.868;4.180;2023-03-05T09:59:03;4.10;;;3.27;;
20669;SDS011;10494;50.868;4.180;2023-03-05T10:01:39;7.73;;;4.03;;
20669;SDS011;10494;50.868;4.180;2023-03-05T10:04:23;11.00;;;4.37;;
20669;SDS011;10494;50.868;4.180;2023-03-05T10:07:03;9.53;;;6.90;;
20669;SDS011;10494;50.868;4.180;2023-03-05T10:09:53;7.70;;;4.70;;
20669;SDS011;10494;50.868;4.180;2023-03-05T10:12:36;5.27;;;3.87;;
20669;SDS011;10494;50.868;4.180;2023-03-05T10:15:31;8.90;;;3.20;;
20669;SDS011;10494;50.868;4.180;2023-03-05T10:18:18;10.33;;;4.50;;
20669;SDS011;10494;50.868;4.180;2023-03-05T10:21:17;8.00;;;5.47;;
20669;SDS011;10494;50.868;4.180;2023-03-05T10:32:18;9.67;;;6.43;;
20669;SDS011;10494;50.868;4.180;2023-03-05T10:40:13;12.87;;;7.43;;
20669;SDS011;10494;50.868;4.180;2023-03-05T10:45:44;15.27;;;8.80;;
20669;SDS011;10494;50.868;4.180;2023-03-05T10:50:47;20.93;;;9.67;;
20669;SDS011;10494;50.868;4.180;2023-03-05T10:53:22;16.90;;;9.20;;
20669;SDS011;10494;50.868;4.180;2023-03-05T10:55:55;13.80;;;7.23;;
20669;SDS011;10494;50.868;4.180;2023-03-05T10:58:26;15.10;;;8.73;;
20669;SDS011;10494;50.868;4.180;2023-03-05T11:03:23;14.03;;;8.80;;
20669;SDS011;10494;50.868;4.180;2023-03-05T11:05:50;14.53;;;9.33;;
20669;SDS011;10494;50.868;4.180;2023-03-05T11:08:30;11.70;;;7.93;;
20669;SDS011;10494;50.868;4.180;2023-03-05T11:11:05;10.27;;;7.30;;
20669;SDS011;10494;50.868;4.180;2023-03-05T11:13:33;11.50;;;7.37;;
20669;SDS011;10494;50.868;4.180;2023-03-05T11:16:03;13.50;;;7.37;;
20669;SDS011;10494;50.868;4.180;2023-03-05T11:18:31;10.67;;;6.93;;
20669;SDS011;10494;50.868;4.180;2023-03-05T11:21:44;9.13;;;6.33;;
20669;SDS011;10494;50.868;4.180;2023-03-05T11:24:11;9.38;;;6.50;;
20669;SDS011;10494;50.868;4.180;2023-03-05T11:26:46;9.63;;;6.33;;
20669;SDS011;10494;50.868;4.180;2023-03-05T11:29:35;8.13;;;7.07;;
20669;SDS011;10494;50.868;4.180;2023-03-05T11:32:18;8.77;;;6.73;;
20669;SDS011;10494;50.868;4.180;2023-03-05T11:34:49;11.32;;;7.13;;
20669;SDS011;10494;50.868;4.180;2023-03-05T11:37:33;8.50;;;7.10;;
20669;SDS011;10494;50.868;4.180;2023-03-05T11:42:40;7.95;;;6.20;;
20669;SDS011;10494;50.868;4.180;2023-03-05T11:45:06;7.13;;;4.80;;
20669;SDS011;10494;50.868;4.180;2023-03-05T11:53:05;8.40;;;5.20;;
20669;SDS011;10494;50.868;4.180;2023-03-05T11:55:59;6.87;;;4.97;;
20669;SDS011;10494;50.868;4.180;2023-03-05T11:58:45;6.75;;;4.00;;
20669;SDS011;10494;50.868;4.180;2023-03-05T12:01:16;9.30;;;5.68;;
20669;SDS011;10494;50.868;4.180;2023-03-05T12:03:44;7.05;;;4.78;;
20669;SDS011;10494;50.868;4.180;2023-03-05T12:08:48;10.57;;;5.05;;
20669;SDS011;10494;50.868;4.180;2023-03-05T12:11:19;7.37;;;4.43;;
20669;SDS011;10494;50.868;4.180;2023-03-05T12:14:33;8.68;;;4.35;;
20669;SDS011;10494;50.868;4.180;2023-03-05T12:16:39;3.73;;;2.40;;
20669;SDS011;10494;50.868;4.180;2023-03-05T12:21:54;2.60;;;1.40;;
20669;SDS011;10494;50.868;4.180;2023-03-05T12:32:04;6.60;;;3.37;;
20669;SDS011;10494;50.868;4.180;2023-03-05T12:40:20;3.70;;;1.67;;
20669;SDS011;10494;50.868;4.180;2023-03-05T12:42:57;3.10;;;1.40;;
20669;SDS011;10494;50.868;4.180;2023-03-05T12:45:25;3.50;;;1.70;;
20669;SDS011;10494;50.868;4.180;2023-03-05T12:52:53;1.80;;;1.40;;
20669;SDS011;10494;50.868;4.180;2023-03-05T12:55:27;6.57;;;1.20;;
20669;SDS011;10494;50.868;4.180;2023-03-05T12:58:07;2.33;;;1.23;;
20669;SDS011;10494;50.868;4.180;2023-03-05T13:03:07;3.77;;;1.00;;
20669;SDS011;10494;50.868;4.180;2023-03-05T13:05:36;2.77;;;1.13;;
20669;SDS011;10494;50.868;4.180;2023-03-05T13:08:18;3.53;;;1.50;;
20669;SDS011;10494;50.868;4.180;2023-03-05T13:13:33;5.00;;;1.80;;
20669;SDS011;10494;50.868;4.180;2023-03-05T13:16:01;2.17;;;1.80;;
20669;SDS011;10494;50.868;4.180;2023-03-05T13:18:28;4.07;;;2.03;;
20669;SDS011;10494;50.868;4.180;2023-03-05T13:23:28;1.57;;;1.30;;
20669;SDS011;10494;50.868;4.180;2023-03-05T13:28:27;4.07;;;1.43;;
20669;SDS011;10494;50.868;4.180;2023-03-05T13:30:57;4.43;;;1.73;;
20669;SDS011;10494;50.868;4.180;2023-03-05T13:33:30;2.17;;;1.17;;
20669;SDS011;10494;50.868;4.180;2023-03-05T13:35:57;3.87;;;1.60;;
20669;SDS011;10494;50.868;4.180;2023-03-05T13:38:25;2.57;;;1.63;;
20669;SDS011;10494;50.868;4.180;2023-03-05T13:43:45;3.47;;;2.27;;
20669;SDS011;10494;50.868;4.180;2023-03-05T13:46:49;5.90;;;2.80;;
20669;SDS011;10494;50.868;4.180;2023-03-05T13:49:24;6.03;;;2.00;;
20669;SDS011;10494;50.868;4.180;2023-03-05T13:51:55;5.50;;;3.27;;
20669;SDS011;10494;50.868;4.180;2023-03-05T13:54:23;8.27;;;4.43;;
20669;SDS011;10494;50.868;4.180;2023-03-05T13:59:59;5.60;;;2.67;;
20669;SDS011;10494;50.868;4.180;2023-03-05T14:02:24;3.83;;;1.87;;
20669;SDS011;10494;50.868;4.180;2023-03-05T14:04:52;2.33;;;1.20;;
20669;SDS011;10494;50.868;4.180;2023-03-05T14:09:45;5.43;;;2.40;;
20669;SDS011;10494;50.868;4.180;2023-03-05T14:12:27;6.20;;;1.73;;
20669;SDS011;10494;50.868;4.180;2023-03-05T14:15:20;3.27;;;1.47;;
20669;SDS011;10494;50.868;4.180;2023-03-05T14:17:47;4.40;;;2.00;;
20669;SDS011;10494;50.868;4.180;2023-03-05T14:20:27;2.37;;;1.30;;
20669;SDS011;10494;50.868;4.180;2023-03-05T14:22:55;2.37;;;1.47;;
20669;SDS011;10494;50.868;4.180;2023-03-05T14:25:30;1.80;;;1.50;;
20669;SDS011;10494;50.868;4.180;2023-03-05T14:28:18;4.73;;;1.83;;
20669;SDS011;10494;50.868;4.180;2023-03-05T14:30:51;3.63;;;1.73;;
20669;SDS011;10494;50.868;4.180;2023-03-05T14:33:28;2.57;;;1.77;;
20669;SDS011;10494;50.868;4.180;2023-03-05T14:35:57;3.07;;;1.60;;
20669;SDS011;10494;50.868;4.180;2023-03-05T14:38:28;5.43;;;1.70;;
20669;SDS011;10494;50.868;4.180;2023-03-05T14:40:55;5.23;;;2.10;;
20669;SDS011;10494;50.868;4.180;2023-03-05T14:43:21;3.90;;;2.30;;
20669;SDS011;10494;50.868;4.180;2023-03-05T14:45:47;4.77;;;1.87;;
20669;SDS011;10494;50.868;4.180;2023-03-05T14:48:14;3.53;;;1.60;;
20669;SDS011;10494;50.868;4.180;2023-03-05T14:53:30;6.40;;;2.20;;
20669;SDS011;10494;50.868;4.180;2023-03-05T14:55:58;9.20;;;1.83;;
20669;SDS011;10494;50.868;4.180;2023-03-05T14:58:28;3.40;;;1.80;;
20669;SDS011;10494;50.868;4.180;2023-03-05T15:00:56;5.27;;;2.40;;
20669;SDS011;10494;50.868;4.180;2023-03-05T15:03:22;5.13;;;2.27;;
20669;SDS011;10494;50.868;4.180;2023-03-05T15:05:49;3.90;;;1.90;;
20669;SDS011;10494;50.868;4.180;2023-03-05T15:08:18;7.03;;;2.00;;
20669;SDS011;10494;50.868;4.180;2023-03-05T15:10:46;5.23;;;2.30;;
20669;SDS011;10494;50.868;4.180;2023-03-05T15:13:12;5.80;;;3.33;;
20669;SDS011;10494;50.868;4.180;2023-03-05T15:15:39;6.03;;;2.40;;
20669;SDS011;10494;50.868;4.180;2023-03-05T15:18:06;4.63;;;2.40;;
20669;SDS011;10494;50.868;4.180;2023-03-05T15:20:34;5.83;;;2.90;;
20669;SDS011;10494;50.868;4.180;2023-03-05T15:22:59;7.50;;;2.63;;
20669;SDS011;10494;50.868;4.180;2023-03-05T15:25:25;4.87;;;2.77;;
20669;SDS011;10494;50.868;4.180;2023-03-05T15:27:52;4.27;;;2.77;;
20669;SDS011;10494;50.868;4.180;2023-03-05T15:30:24;7.77;;;3.10;;
20669;SDS011;10494;50.868;4.180;2023-03-05T15:32:53;3.23;;;1.90;;
20669;SDS011;10494;50.868;4.180;2023-03-05T15:35:20;6.53;;;2.70;;
20669;SDS011;10494;50.868;4.180;2023-03-05T15:37:46;8.70;;;3.77;;
20669;SDS011;10494;50.868;4.180;2023-03-05T15:40:12;5.10;;;2.90;;
20669;SDS011;10494;50.868;4.180;2023-03-05T15:42:38;4.90;;;2.43;;
20669;SDS011;10494;50.868;4.180;2023-03-05T15:45:04;7.53;;;2.63;;
20669;SDS011;10494;50.868;4.180;2023-03-05T15:47:31;5.50;;;2.53;;
20669;SDS011;10494;50.868;4.180;2023-03-05T15:49:56;5.67;;;2.60;;
20669;SDS011;10494;50.868;4.180;2023-03-05T15:52:22;7.83;;;3.50;;
20669;SDS011;10494;50.868;4.180;2023-03-05T15:54:47;11.80;;;4.00;;
20669;SDS011;10494;50.868;4.180;2023-03-05T15:57:13;5.70;;;3.07;;
20669;SDS011;10494;50.868;4.180;2023-03-05T15:59:39;3.90;;;2.23;;
20669;SDS011;10494;50.868;4.180;2023-03-05T16:02:05;5.27;;;2.37;;
20669;SDS011;10494;50.868;4.180;2023-03-05T16:04:31;3.33;;;1.97;;
20669;SDS011;10494;50.868;4.180;2023-03-05T16:06:58;8.70;;;2.90;;
20669;SDS011;10494;50.868;4.180;2023-03-05T16:09:29;14.97;;;3.87;;
20669;SDS011;10494;50.868;4.180;2023-03-05T16:11:58;5.17;;;3.77;;
20669;SDS011;10494;50.868;4.180;2023-03-05T16:14:25;4.20;;;3.00;;
20669;SDS011;10494;50.868;4.180;2023-03-05T16:16:52;8.63;;;4.17;;
20669;SDS011;10494;50.868;4.180;2023-03-05T16:19:20;6.97;;;3.37;;